Time;durP1;ratioP1;P1;durP2;ratioP2;P2;SDS_P1;SDS_P2;PMS_P1;PMS_P2;Temp;Humidity;BMP_temperature;BMP_pressure;BME280_temperature;BME280_humidity;BME280_pressure;Samples;Min_cycle;Max_cycle;Signal;HPM_P1;HPM_P2
2022/07/01 00:00:46;;;;;;;3.47;3.17;;;18.20;99.90;;;;;;5087600;28;21515;-86
2022/07/01 00:03:13;;;;;;;3.30;3.00;;;18.20;99.90;;;;;;5109295;28;20427;-84
2022/07/01 00:05:40;;;;;;;3.23;2.90;;;18.10;99.90;;;;;;5095820;28;20608;-86
2022/07/01 00:08:07;;;;;;;3.10;2.80;;;18.20;99.90;;;;;;5092413;28;20449;-85
2022/07/01 00:10:37;;;;;;;3.80;3.17;;;18.10;99.90;;;;;;5069268;28;20446;-86
2022/07/01 00:13:06;;;;;;;3.73;3.33;;;18.10;99.90;;;;;;5088014;28;20457;-84
2022/07/01 00:15:33;;;;;;;3.57;3.27;;;18.10;99.90;;;;;;5085350;28;20994;-83
2022/07/01 00:18:03;;;;;;;5.30;3.50;;;18.00;99.90;;;;;;5071632;28;20464;-84
2022/07/01 00:20:30;;;;;;;3.80;3.40;;;18.00;99.90;;;;;;5067585;28;20459;-83
2022/07/01 00:25:51;;;;;;;4.20;3.80;;;18.10;99.90;;;;;;5085353;28;20479;-83
2022/07/01 00:28:17;;;;;;;3.63;3.30;;;18.10;99.90;;;;;;5069591;28;20438;-83
2022/07/01 00:30:44;;;;;;;3.80;3.40;;;18.00;99.90;;;;;;5084458;28;20458;-85
2022/07/01 00:33:17;;;;;;;4.10;3.80;;;18.00;99.90;;;;;;5066833;28;20509;-85
2022/07/01 00:35:49;;;;;;;4.77;3.30;;;18.10;99.90;;;;;;5086423;28;20657;-83
2022/07/01 00:38:19;;;;;;;4.00;3.60;;;18.10;99.90;;;;;;5063152;28;20457;-83
2022/07/01 00:40:52;;;;;;;3.90;3.47;;;18.00;99.90;;;;;;5083304;28;20463;-82
2022/07/01 00:43:22;;;;;;;3.43;3.13;;;18.00;99.90;;;;;;5095366;27;20742;-83
2022/07/01 00:46:04;;;;;;;4.90;3.73;;;18.00;99.90;;;;;;5088089;28;20657;-85
2022/07/01 00:48:36;;;;;;;4.07;3.70;;;18.00;99.90;;;;;;5085386;28;21308;-84
2022/07/01 00:51:03;;;;;;;5.00;3.97;;;17.90;99.90;;;;;;5089231;28;20546;-85
2022/07/01 00:53:31;;;;;;;3.70;3.40;;;17.90;99.90;;;;;;5085194;28;20451;-86
2022/07/01 00:55:58;;;;;;;5.57;4.20;;;17.90;99.90;;;;;;5086343;28;20494;-87
2022/07/01 00:58:30;;;;;;;4.50;4.10;;;18.00;99.90;;;;;;5085238;28;20968;-83
2022/07/01 01:00:58;;;;;;;5.27;4.00;;;18.00;99.90;;;;;;5085732;28;20455;-84
2022/07/01 01:03:26;;;;;;;5.20;4.40;;;18.00;99.90;;;;;;5066112;28;20594;-84
2022/07/01 01:05:56;;;;;;;5.30;4.80;;;18.00;99.90;;;;;;5064104;28;20510;-86
2022/07/01 01:08:25;;;;;;;6.30;4.10;;;18.00;99.90;;;;;;5068311;28;20519;-85
2022/07/01 01:10:54;;;;;;;4.27;3.87;;;17.90;99.90;;;;;;5064939;28;20484;-85
2022/07/01 01:13:20;;;;;;;4.70;3.80;;;17.90;99.90;;;;;;5068632;28;20783;-84
2022/07/01 01:15:47;;;;;;;5.57;4.67;;;17.90;99.90;;;;;;5071595;28;20556;-84
2022/07/01 01:18:14;;;;;;;5.90;5.00;;;18.00;99.90;;;;;;5070162;28;20459;-85
2022/07/01 01:20:41;;;;;;;6.27;4.70;;;18.00;99.90;;;;;;5086162;28;20454;-84
2022/07/01 01:23:08;;;;;;;7.07;5.10;;;18.00;99.90;;;;;;5087047;28;20461;-85
2022/07/01 01:25:35;;;;;;;6.10;5.17;;;18.00;99.90;;;;;;5092428;28;20557;-85
2022/07/01 01:28:02;;;;;;;6.03;5.43;;;17.90;99.90;;;;;;5081719;28;20455;-84
2022/07/01 01:30:29;;;;;;;6.60;4.80;;;17.90;99.90;;;;;;5095565;28;20457;-82
2022/07/01 01:32:56;;;;;;;5.83;4.90;;;18.20;99.90;;;;;;5084078;28;20521;-86
2022/07/01 01:35:23;;;;;;;6.17;4.90;;;18.30;99.90;;;;;;5080578;28;20482;-83
2022/07/01 01:37:49;;;;;;;5.10;4.60;;;18.20;99.90;;;;;;5088307;28;20451;-83
2022/07/01 01:40:16;;;;;;;6.07;4.97;;;18.00;99.90;;;;;;5069876;28;20457;-84
2022/07/01 01:42:44;;;;;;;5.33;4.83;;;17.90;99.90;;;;;;5067905;28;20451;-83
2022/07/01 01:45:14;;;;;;;4.83;4.37;;;18.00;99.90;;;;;;5069757;28;20630;-83
2022/07/01 01:47:41;;;;;;;4.80;4.30;;;17.80;99.90;;;;;;5073166;28;20522;-85
2022/07/01 01:50:10;;;;;;;5.87;5.13;;;17.90;99.90;;;;;;5076940;28;20464;-83
2022/07/01 01:52:38;;;;;;;6.60;4.70;;;17.90;99.90;;;;;;5074361;28;20454;-82
2022/07/01 01:55:08;;;;;;;9.00;4.40;;;17.70;99.90;;;;;;5096907;28;20477;-85
2022/07/01 01:57:38;;;;;;;6.80;3.80;;;17.80;99.90;;;;;;5079855;28;20481;-84
2022/07/01 02:00:07;;;;;;;3.93;3.53;;;17.90;99.90;;;;;;5055252;28;20455;-85
2022/07/01 02:02:36;;;;;;;4.20;3.40;;;17.90;99.90;;;;;;5075474;28;20442;-83
2022/07/01 02:05:06;;;;;;;3.63;3.30;;;17.90;99.90;;;;;;5079696;28;20467;-85
2022/07/01 02:07:35;;;;;;;7.27;3.90;;;17.80;99.90;;;;;;5102288;28;20482;-87
2022/07/01 02:10:02;;;;;;;4.30;2.83;;;17.80;99.90;;;;;;5094250;28;20444;-86
2022/07/01 02:12:28;;;;;;;4.10;3.00;;;18.00;99.90;;;;;;5109952;28;20458;-86
2022/07/01 02:14:55;;;;;;;4.07;3.40;;;17.90;99.90;;;;;;5112406;27;20534;-86
2022/07/01 02:17:26;;;;;;;4.10;3.40;;;17.80;99.90;;;;;;5090905;28;20478;-86
2022/07/01 02:19:54;;;;;;;3.73;2.80;;;17.70;99.90;;;;;;5092144;28;20448;-86
2022/07/01 02:22:21;;;;;;;4.20;3.30;;;17.60;99.90;;;;;;5109252;27;20435;-85
2022/07/01 02:24:48;;;;;;;3.70;3.37;;;17.80;99.90;;;;;;5082579;28;20471;-83
2022/07/01 02:27:15;;;;;;;5.50;3.27;;;17.70;99.90;;;;;;5075949;28;20455;-86
2022/07/01 02:29:42;;;;;;;4.40;3.40;;;17.60;99.90;;;;;;5089418;28;20449;-86
2022/07/01 02:32:10;;;;;;;3.80;2.77;;;17.70;99.90;;;;;;5106863;27;20521;-85
2022/07/01 02:34:37;;;;;;;3.00;2.70;;;17.90;99.90;;;;;;5081735;28;20549;-85
2022/07/01 02:37:05;;;;;;;3.83;2.93;;;17.90;99.90;;;;;;5075099;28;20502;-84
2022/07/01 02:39:33;;;;;;;2.97;2.30;;;17.90;99.90;;;;;;5093072;28;20528;-85
2022/07/01 02:44:46;;;;;;;3.43;2.67;;;17.80;99.90;;;;;;5090747;28;20466;-84
2022/07/01 02:47:12;;;;;;;2.50;2.30;;;17.60;99.90;;;;;;5092112;28;20468;-85
2022/07/01 02:49:39;;;;;;;3.70;2.47;;;17.60;99.90;;;;;;5071296;28;20571;-86
2022/07/01 02:52:07;;;;;;;3.20;2.10;;;17.60;99.90;;;;;;5090719;28;21711;-85
2022/07/01 02:54:33;;;;;;;2.97;2.50;;;17.60;99.90;;;;;;5099894;28;20467;-85
2022/07/01 02:57:01;;;;;;;4.60;2.47;;;17.50;99.90;;;;;;5113343;27;20508;-86
2022/07/01 02:59:30;;;;;;;4.90;2.10;;;17.40;99.90;;;;;;5101060;28;20478;-85
2022/07/01 03:02:04;;;;;;;4.17;2.43;;;17.30;99.90;;;;;;5092967;28;20454;-83
2022/07/01 03:04:33;;;;;;;3.97;2.00;;;17.30;99.90;;;;;;5093132;28;20818;-85
2022/07/01 03:07:01;;;;;;;2.03;1.93;;;17.40;99.90;;;;;;5070728;28;20553;-84
2022/07/01 03:09:34;;;;;;;2.83;2.57;;;17.30;99.90;;;;;;5071162;28;20451;-86
2022/07/01 03:12:24;;;;;;;2.47;2.27;;;17.30;99.90;;;;;;5068430;28;20484;-86
2022/07/01 03:14:47;;;;;;;2.40;2.20;;;17.40;99.90;;;;;;5083829;28;20490;-84
2022/07/01 03:17:14;;;;;;;3.13;1.80;;;17.30;99.90;;;;;;5080780;28;20486;-85
2022/07/01 03:19:41;;;;;;;2.07;1.77;;;17.30;99.90;;;;;;5082185;28;21978;-86
2022/07/01 03:22:07;;;;;;;1.83;1.73;;;17.20;99.90;;;;;;5062792;28;20462;-83
2022/07/01 03:24:34;;;;;;;1.93;1.80;;;17.30;99.90;;;;;;5079538;28;20531;-86
2022/07/01 03:27:03;;;;;;;2.20;1.90;;;17.40;99.90;;;;;;5059440;28;20500;-84
2022/07/01 03:29:29;;;;;;;2.33;2.07;;;17.30;99.90;;;;;;5077896;28;20462;-86
2022/07/01 03:31:56;;;;;;;3.63;1.90;;;17.30;99.90;;;;;;5079844;28;20463;-84
2022/07/01 03:34:23;;;;;;;3.43;1.77;;;17.30;99.90;;;;;;5063730;28;20471;-84
2022/07/01 03:37:16;;;;;;;4.60;2.27;;;17.40;99.90;;;;;;4980828;27;4626616;-85
2022/07/01 03:39:53;;;;;;;3.10;2.10;;;17.60;99.90;;;;;;5128835;27;20251;-84
2022/07/01 03:42:20;;;;;;;3.70;2.80;;;17.70;99.90;;;;;;5123146;27;20457;-86
2022/07/01 03:44:55;;;;;;;2.20;2.00;;;17.50;99.90;;;;;;5111351;27;20489;-85
2022/07/01 03:47:21;;;;;;;3.37;1.80;;;17.30;99.90;;;;;;5092279;27;20450;-82
2022/07/01 03:49:48;;;;;;;2.37;1.80;;;17.30;99.90;;;;;;5093744;28;20499;-86
2022/07/01 03:52:26;;;;;;;2.87;1.93;;;17.60;99.90;;;;;;5104699;28;20445;-85
2022/07/01 03:55:04;;;;;;;2.70;2.10;;;17.50;99.90;;;;;;5107019;28;20987;-85
2022/07/01 03:57:51;;;;;;;2.20;1.47;;;17.40;99.90;;;;;;5120055;28;20467;-88
2022/07/01 04:00:18;;;;;;;2.37;1.80;;;17.50;99.90;;;;;;5106623;28;20457;-84
2022/07/01 04:02:53;;;;;;;2.73;2.27;;;17.80;99.90;;;;;;5106375;28;20461;-82
2022/07/01 04:05:20;;;;;;;5.23;2.00;;;17.80;99.70;;;;;;5108089;28;20456;-84
2022/07/01 04:07:47;;;;;;;3.30;2.07;;;17.70;99.90;;;;;;5106954;28;20465;-85
2022/07/01 04:10:14;;;;;;;2.53;2.10;;;17.40;99.90;;;;;;5107094;28;20527;-82
2022/07/01 04:12:41;;;;;;;2.57;2.33;;;17.50;99.90;;;;;;5108329;28;20468;-82
2022/07/01 04:15:14;;;;;;;2.10;1.77;;;17.50;99.90;;;;;;5117177;28;20490;-84
2022/07/01 04:17:41;;;;;;;2.57;1.90;;;17.40;99.90;;;;;;5108821;28;20453;-86
2022/07/01 04:20:11;;;;;;;1.77;1.67;;;17.40;99.90;;;;;;5107456;28;20476;-86
2022/07/01 04:22:38;;;;;;;4.93;1.83;;;17.20;99.90;;;;;;5108833;28;20459;-85
2022/07/01 04:25:05;;;;;;;2.10;2.00;;;17.20;99.90;;;;;;5108278;28;20465;-84
2022/07/01 04:27:32;;;;;;;6.90;1.73;;;17.20;99.90;;;;;;5107488;28;20452;-85
2022/07/01 04:29:59;;;;;;;2.70;1.40;;;17.30;99.90;;;;;;5110575;28;20442;-85
2022/07/01 04:32:26;;;;;;;1.87;1.77;;;17.20;99.90;;;;;;5112672;28;20458;-85
2022/07/01 04:34:53;;;;;;;3.80;1.67;;;17.30;99.90;;;;;;5114175;28;20546;-85
2022/07/01 04:37:19;;;;;;;1.60;1.50;;;17.30;99.90;;;;;;5113819;28;20457;-86
2022/07/01 04:39:46;;;;;;;7.50;1.93;;;17.60;99.90;;;;;;5111551;28;20457;-85
2022/07/01 04:42:14;;;;;;;3.63;1.60;;;17.70;99.90;;;;;;5112295;28;20437;-84
2022/07/01 04:44:41;;;;;;;2.30;2.00;;;17.60;99.90;;;;;;5112250;28;20557;-84
2022/07/01 04:47:09;;;;;;;3.20;1.90;;;17.50;99.90;;;;;;5105022;28;20493;-83
2022/07/01 04:49:36;;;;;;;4.47;1.70;;;17.50;99.90;;;;;;5100179;28;20504;-86
2022/07/01 04:52:04;;;;;;;4.47;2.00;;;17.40;99.90;;;;;;5097550;28;20545;-84
2022/07/01 04:54:31;;;;;;;2.50;2.13;;;17.40;99.90;;;;;;5095948;28;20477;-84
2022/07/01 04:56:57;;;;;;;2.90;1.60;;;17.50;99.90;;;;;;5100752;28;20478;-86
2022/07/01 04:59:24;;;;;;;5.43;2.57;;;17.40;99.90;;;;;;5099579;28;20461;-85
2022/07/01 05:01:51;;;;;;;3.30;2.10;;;17.50;99.90;;;;;;5100041;28;20507;-83
2022/07/01 05:04:26;;;;;;;2.00;1.90;;;17.50;99.90;;;;;;5103993;28;20588;-84
2022/07/01 05:06:53;;;;;;;3.27;1.97;;;17.50;99.60;;;;;;5104683;28;20477;-82
2022/07/01 05:09:28;;;;;;;5.37;2.43;;;17.50;99.60;;;;;;5104410;28;20483;-84
2022/07/01 05:11:54;;;;;;;1.53;1.40;;;17.50;99.90;;;;;;5105521;28;20469;-87
2022/07/01 05:14:21;;;;;;;2.33;2.10;;;17.30;99.90;;;;;;5099449;28;20450;-82
2022/07/01 05:16:48;;;;;;;3.10;2.10;;;17.60;99.80;;;;;;5089170;28;20483;-86
2022/07/01 05:22:00;;;;;;;6.23;2.47;;;17.30;99.90;;;;;;5094343;28;20538;-84
2022/07/01 05:24:30;;;;;;;5.27;2.20;;;17.20;99.90;;;;;;5092236;28;22005;-85
2022/07/01 05:26:58;;;;;;;3.50;2.33;;;17.20;99.90;;;;;;5090460;28;20552;-86
2022/07/01 05:29:25;;;;;;;4.70;2.53;;;17.30;99.90;;;;;;5094473;28;20476;-85
2022/07/01 05:31:51;;;;;;;2.03;1.60;;;17.30;99.70;;;;;;5094438;28;20469;-85
2022/07/01 05:34:18;;;;;;;5.73;1.87;;;17.30;99.80;;;;;;5098021;28;20485;-86
2022/07/01 05:36:45;;;;;;;3.30;1.80;;;17.30;99.70;;;;;;5094542;28;20484;-86
2022/07/01 05:39:14;;;;;;;3.40;1.50;;;17.80;98.90;;;;;;5105455;28;20452;-88
2022/07/01 05:41:41;;;;;;;4.73;1.87;;;18.10;97.90;;;;;;5107716;28;20514;-87
2022/07/01 05:44:08;;;;;;;3.10;1.67;;;17.90;97.80;;;;;;5100205;28;20451;-87
2022/07/01 05:46:36;;;;;;;6.00;2.23;;;17.70;98.40;;;;;;5097008;28;20548;-84
2022/07/01 05:49:03;;;;;;;4.57;2.00;;;17.90;98.70;;;;;;5095764;28;20447;-85
2022/07/01 05:51:30;;;;;;;2.10;1.53;;;18.00;98.80;;;;;;5095441;28;20453;-85
2022/07/01 05:53:58;;;;;;;7.77;2.40;;;18.00;98.50;;;;;;5093063;28;20454;-83
2022/07/01 05:56:25;;;;;;;5.73;2.10;;;17.70;98.60;;;;;;5088308;28;20482;-85
2022/07/01 05:58:54;;;;;;;2.90;2.23;;;17.70;99.20;;;;;;5089468;27;20721;-85
2022/07/01 06:01:21;;;;;;;3.70;1.93;;;17.80;99.50;;;;;;5097565;28;20442;-84
2022/07/01 06:03:48;;;;;;;4.30;2.10;;;17.80;99.00;;;;;;5095535;28;20458;-85
2022/07/01 06:06:25;;;;;;;3.87;2.13;;;17.90;98.80;;;;;;5100208;28;20468;-86
2022/07/01 06:08:56;;;;;;;2.50;1.77;;;17.90;99.00;;;;;;5087572;28;20474;-84
2022/07/01 06:11:22;;;;;;;4.97;2.10;;;17.90;99.10;;;;;;5084596;28;20461;-86
2022/07/01 06:13:52;;;;;;;5.77;1.90;;;17.90;99.00;;;;;;5083418;28;20458;-86
2022/07/01 06:16:21;;;;;;;3.77;2.30;;;18.00;98.90;;;;;;5089751;28;20475;-82
2022/07/01 06:18:52;;;;;;;4.20;3.80;;;18.00;98.70;;;;;;5098793;28;20521;-82
2022/07/01 06:21:18;;;;;;;3.73;1.97;;;17.90;99.10;;;;;;5101215;28;20447;-86
2022/07/01 06:23:45;;;;;;;3.00;2.00;;;18.10;99.10;;;;;;5103323;28;20470;-86
2022/07/01 06:29:11;;;;;;;4.10;2.40;;;18.30;98.70;;;;;;5083118;28;21002;-83
2022/07/01 06:31:38;;;;;;;3.73;2.17;;;18.60;98.40;;;;;;5090136;28;20462;-87
2022/07/01 06:34:07;;;;;;;2.97;2.07;;;18.50;98.00;;;;;;5089766;28;20501;-85
2022/07/01 06:36:34;;;;;;;3.63;1.83;;;18.40;98.20;;;;;;5104173;27;20925;-87
2022/07/01 06:39:02;;;;;;;3.00;2.03;;;18.40;98.40;;;;;;5096264;28;20479;-85
2022/07/01 06:41:29;;;;;;;2.40;2.20;;;18.40;98.50;;;;;;5095703;28;20473;-84
2022/07/01 06:44:01;;;;;;;2.47;2.17;;;18.60;98.80;;;;;;5090901;28;20502;-83
2022/07/01 06:46:28;;;;;;;3.53;2.00;;;18.80;98.00;;;;;;5092187;28;20482;-85
2022/07/01 06:48:55;;;;;;;6.47;2.40;;;18.90;97.90;;;;;;5094991;28;20453;-84
2022/07/01 06:51:22;;;;;;;3.50;1.90;;;18.90;97.20;;;;;;5094247;28;20546;-86
2022/07/01 06:53:49;;;;;;;3.90;2.30;;;18.80;97.10;;;;;;5090505;28;20521;-86
2022/07/01 06:56:19;;;;;;;4.93;2.23;;;18.60;97.60;;;;;;5089223;28;20475;-82
2022/07/01 06:58:45;;;;;;;6.90;2.27;;;18.40;98.00;;;;;;5089141;28;20447;-84
2022/07/01 07:01:12;;;;;;;2.67;1.97;;;18.30;98.50;;;;;;5088651;28;21204;-83
2022/07/01 07:03:39;;;;;;;4.17;2.13;;;18.20;98.90;;;;;;5093963;28;20507;-83
2022/07/01 07:06:06;;;;;;;4.30;2.30;;;18.30;98.90;;;;;;5096956;28;20509;-83
2022/07/01 07:08:32;;;;;;;2.10;1.97;;;18.30;98.80;;;;;;5093109;28;20467;-84
2022/07/01 07:11:00;;;;;;;3.37;2.17;;;18.20;98.00;;;;;;5098151;28;20459;-86
2022/07/01 07:13:27;;;;;;;2.60;2.10;;;18.20;98.30;;;;;;5094718;28;20486;-83
2022/07/01 07:15:58;;;;;;;3.40;2.17;;;18.10;98.40;;;;;;5092632;28;20579;-86
2022/07/01 07:18:25;;;;;;;1.83;1.57;;;18.20;98.70;;;;;;5091827;28;20443;-84
2022/07/01 07:20:52;;;;;;;4.53;2.27;;;18.40;98.80;;;;;;5092625;28;20450;-86
2022/07/01 07:23:35;;;;;;;4.40;2.40;;;18.50;98.50;;;;;;5090396;28;20445;-84
2022/07/01 07:26:10;;;;;;;2.47;2.27;;;18.60;98.60;;;;;;5093215;28;20484;-85
2022/07/01 07:28:37;;;;;;;5.37;2.17;;;18.60;98.30;;;;;;5095059;28;20453;-85
2022/07/01 07:31:03;;;;;;;3.13;2.23;;;18.70;97.70;;;;;;5093785;28;20462;-85
2022/07/01 07:33:30;;;;;;;2.67;2.30;;;18.70;98.00;;;;;;5095983;28;20708;-87
2022/07/01 07:35:57;;;;;;;5.83;2.83;;;19.20;97.60;;;;;;5092012;28;20478;-85
2022/07/01 07:38:31;;;;;;;2.27;2.07;;;19.00;97.00;;;;;;5091172;28;21696;-84
2022/07/01 07:41:04;;;;;;;3.50;2.30;;;19.00;97.20;;;;;;5092754;28;20486;-84
2022/07/01 07:44:07;;;;;;;3.00;2.03;;;19.00;97.00;;;;;;5091781;28;20576;-84
2022/07/01 07:46:41;;;;;;;3.67;2.23;;;19.20;97.00;;;;;;5089171;28;20573;-84
2022/07/01 07:49:26;;;;;;;3.03;2.40;;;19.20;96.80;;;;;;5067744;28;20466;-83
2022/07/01 07:51:52;;;;;;;1.93;1.83;;;19.30;97.00;;;;;;5090821;28;20450;-83
2022/07/01 07:54:19;;;;;;;4.53;2.33;;;20.00;95.30;;;;;;5092908;28;20455;-84
2022/07/01 07:56:55;;;;;;;4.23;2.10;;;19.70;95.20;;;;;;5068990;28;20474;-84
2022/07/01 07:59:22;;;;;;;6.00;2.00;;;19.80;95.60;;;;;;5103377;28;20451;-83
2022/07/01 08:01:49;;;;;;;3.63;2.30;;;19.70;95.50;;;;;;5105514;28;20462;-86
2022/07/01 08:04:15;;;;;;;2.93;2.00;;;19.70;95.40;;;;;;5104170;28;20432;-86
2022/07/01 08:06:45;;;;;;;2.30;2.07;;;20.20;94.30;;;;;;5105092;28;20497;-86
2022/07/01 08:09:11;;;;;;;4.50;2.33;;;20.10;94.00;;;;;;5104529;28;20450;-87
2022/07/01 08:11:38;;;;;;;2.70;2.50;;;19.70;94.40;;;;;;5101761;28;20461;-86
2022/07/01 08:14:05;;;;;;;2.90;2.47;;;19.50;95.10;;;;;;5103421;28;20431;-86
2022/07/01 08:16:32;;;;;;;2.13;1.93;;;19.40;95.50;;;;;;5103973;28;20457;-86
2022/07/01 08:18:59;;;;;;;2.20;1.67;;;19.30;95.60;;;;;;5096805;28;20443;-86
2022/07/01 08:21:25;;;;;;;3.33;2.23;;;19.40;96.20;;;;;;5092741;28;20451;-86
2022/07/01 08:23:55;;;;;;;4.23;2.47;;;19.90;95.80;;;;;;5099670;28;20494;-83
2022/07/01 08:26:22;;;;;;;2.87;2.57;;;20.20;94.40;;;;;;5097194;28;20465;-83
2022/07/01 08:28:48;;;;;;;2.80;2.00;;;20.30;93.30;;;;;;5096678;28;20444;-86
2022/07/01 08:31:15;;;;;;;3.57;2.50;;;20.00;93.60;;;;;;5097315;28;21932;-86
2022/07/01 08:33:42;;;;;;;2.50;2.00;;;19.90;94.10;;;;;;5097196;28;20447;-85
2022/07/01 08:36:09;;;;;;;3.37;2.33;;;19.80;94.70;;;;;;5096498;28;20461;-85
2022/07/01 08:38:36;;;;;;;2.87;2.57;;;20.50;94.00;;;;;;5095526;28;20518;-86
2022/07/01 08:41:04;;;;;;;3.20;2.70;;;20.70;93.30;;;;;;5095587;28;20922;-86
2022/07/01 08:43:31;;;;;;;4.80;2.80;;;20.60;93.70;;;;;;5094738;28;20458;-83
2022/07/01 08:46:01;;;;;;;3.57;2.63;;;20.30;93.40;;;;;;5093555;28;20460;-86
2022/07/01 08:48:28;;;;;;;3.73;2.80;;;20.00;93.60;;;;;;5096624;28;20450;-85
2022/07/01 08:50:55;;;;;;;4.50;2.67;;;19.80;94.10;;;;;;5096004;28;20446;-86
2022/07/01 08:53:22;;;;;;;5.10;3.00;;;20.10;93.90;;;;;;5095105;28;20477;-85
2022/07/01 08:58:36;;;;;;;2.27;2.07;;;20.40;92.50;;;;;;5094017;28;20456;-83
2022/07/01 09:01:20;;;;;;;2.90;2.43;;;20.10;92.90;;;;;;5093291;28;20478;-84
2022/07/01 09:03:53;;;;;;;4.83;2.70;;;19.90;92.80;;;;;;5087984;28;20455;-83
2022/07/01 09:06:26;;;;;;;3.00;2.40;;;20.00;92.90;;;;;;5089113;28;20569;-84
2022/07/01 09:08:53;;;;;;;4.13;2.63;;;20.10;93.00;;;;;;5085196;28;20456;-83
2022/07/01 09:11:25;;;;;;;4.07;2.80;;;20.30;92.80;;;;;;5088275;28;20595;-85
2022/07/01 09:14:13;;;;;;;6.43;3.30;;;20.30;92.90;;;;;;5088994;28;20454;-84
2022/07/01 09:16:43;;;;;;;7.93;3.70;;;20.40;92.40;;;;;;5088429;28;20469;-83
2022/07/01 09:19:12;;;;;;;4.33;2.90;;;20.80;91.70;;;;;;5084655;28;20453;-83
2022/07/01 09:21:39;;;;;;;2.73;2.53;;;20.50;91.50;;;;;;5090464;28;20454;-84
2022/07/01 09:24:27;;;;;;;4.40;3.47;;;20.60;91.30;;;;;;5091426;28;20455;-83
2022/07/01 09:26:59;;;;;;;4.10;2.90;;;21.10;90.50;;;;;;5090126;28;20460;-86
2022/07/01 09:29:32;;;;;;;3.57;2.33;;;21.00;90.20;;;;;;5087324;28;21569;-85
2022/07/01 09:32:02;;;;;;;3.03;2.73;;;20.90;89.00;;;;;;5095069;28;20533;-84
2022/07/01 09:34:43;;;;;;;3.33;3.13;;;21.40;88.30;;;;;;5089029;28;20527;-84
2022/07/01 09:37:21;;;;;;;3.87;2.83;;;21.80;86.10;;;;;;5107224;27;20490;-85
2022/07/01 09:39:54;;;;;;;2.40;2.20;;;21.40;87.40;;;;;;5086684;28;20455;-86
2022/07/01 09:42:23;;;;;;;4.37;2.47;;;21.50;87.60;;;;;;5087285;28;20438;-81
2022/07/01 09:45:11;;;;;;;2.50;2.10;;;21.60;86.40;;;;;;5084792;28;20547;-83
2022/07/01 09:47:43;;;;;;;4.17;2.60;;;21.70;84.90;;;;;;5087284;28;20460;-85
2022/07/01 09:50:10;;;;;;;2.93;2.30;;;21.90;83.80;;;;;;5084846;28;20443;-85
2022/07/01 09:52:38;;;;;;;3.47;2.40;;;22.10;83.40;;;;;;5083011;28;20825;-83
2022/07/01 09:55:06;;;;;;;4.03;2.37;;;23.10;78.40;;;;;;5065070;28;20522;-83
2022/07/01 09:57:33;;;;;;;3.70;2.50;;;22.60;79.00;;;;;;5084494;28;20511;-83
2022/07/01 10:00:00;;;;;;;2.67;2.47;;;22.50;80.90;;;;;;5090820;28;20457;-84
2022/07/01 10:02:30;;;;;;;3.17;2.50;;;23.10;78.80;;;;;;5091999;28;20455;-86
2022/07/01 10:05:05;;;;;;;2.83;2.43;;;24.30;76.10;;;;;;5090919;28;20503;-84
2022/07/01 10:07:57;;;;;;;2.23;2.07;;;25.40;69.70;;;;;;5094490;28;20482;-86
2022/07/01 10:10:57;;;;;;;2.50;2.30;;;25.10;69.70;;;;;;5094652;28;20458;-85
2022/07/01 10:13:56;;;;;;;3.07;2.63;;;24.00;70.60;;;;;;5059443;28;20461;-86
2022/07/01 10:17:06;;;;;;;2.93;2.60;;;24.80;69.90;;;;;;5073289;28;20718;-86
2022/07/01 10:20:06;;;;;;;2.30;2.10;;;25.00;67.90;;;;;;5099771;28;20537;-86
2022/07/01 10:22:48;;;;;;;2.73;2.00;;;26.60;63.10;;;;;;5095847;28;20483;-85
2022/07/01 10:25:56;;;;;;;2.40;2.20;;;26.90;59.80;;;;;;5087936;28;20497;-85
2022/07/01 10:28:43;;;;;;;5.60;2.10;;;27.70;57.70;;;;;;5095843;28;20484;-86
2022/07/01 10:31:17;;;;;;;3.93;2.50;;;26.10;59.20;;;;;;5089942;28;20507;-86
2022/07/01 10:34:00;;;;;;;3.13;2.23;;;25.00;64.30;;;;;;5091892;28;20555;-83
2022/07/01 10:36:35;;;;;;;3.87;2.33;;;25.10;64.70;;;;;;5092522;28;20486;-85
2022/07/01 10:39:22;;;;;;;2.80;2.50;;;25.20;64.10;;;;;;5101541;28;20457;-87
2022/07/01 10:41:57;;;;;;;1.77;1.40;;;25.50;62.60;;;;;;5090700;28;20450;-83
2022/07/01 10:45:10;;;;;;;3.10;1.77;;;25.60;59.70;;;;;;5087947;28;20458;-86
2022/07/01 10:47:39;;;;;;;2.27;1.80;;;25.70;58.80;;;;;;5091783;28;20450;-86
2022/07/01 10:50:16;;;;;;;3.63;1.77;;;25.60;59.30;;;;;;5111644;27;20487;-85
2022/07/01 10:53:03;;;;;;;5.43;1.90;;;25.50;59.40;;;;;;5095929;28;20780;-86
2022/07/01 10:55:43;;;;;;;2.03;1.70;;;25.20;59.40;;;;;;5098744;28;20473;-82
2022/07/01 10:58:37;;;;;;;3.90;1.90;;;24.60;61.10;;;;;;5100917;28;20460;-87
2022/07/01 11:01:14;;;;;;;2.33;1.97;;;24.10;63.00;;;;;;5101641;28;20479;-85
2022/07/01 11:03:51;;;;;;;2.90;1.80;;;23.70;64.60;;;;;;5096358;28;20449;-85
2022/07/01 11:06:21;;;;;;;2.83;1.73;;;23.80;61.70;;;;;;5088868;28;20468;-85
2022/07/01 11:08:50;;;;;;;2.50;1.80;;;23.80;63.20;;;;;;5088840;28;20453;-83
2022/07/01 11:11:24;;;;;;;3.43;1.70;;;23.80;64.20;;;;;;5089458;28;20596;-83
2022/07/01 11:13:57;;;;;;;2.17;1.90;;;23.80;65.20;;;;;;5087016;28;20490;-83
2022/07/01 11:16:30;;;;;;;3.80;2.00;;;23.60;64.70;;;;;;5087515;28;20478;-85
2022/07/01 11:18:59;;;;;;;2.50;1.80;;;23.70;65.30;;;;;;5087963;28;20481;-85
2022/07/01 11:21:29;;;;;;;2.73;2.00;;;23.90;63.90;;;;;;5090098;28;21073;-86
2022/07/01 11:24:16;;;;;;;6.23;2.30;;;23.50;64.90;;;;;;5087777;28;20437;-85
2022/07/01 11:26:47;;;;;;;3.97;2.20;;;23.40;66.10;;;;;;5091558;28;20454;-88
2022/07/01 11:30:08;;;;;;;2.37;2.00;;;23.40;65.20;;;;;;5091198;28;20541;-85
2022/07/01 11:33:07;;;;;;;3.00;1.90;;;23.20;65.10;;;;;;5020552;28;20431;-87
2022/07/01 11:41:33;;;;;;;1.50;1.40;;;24.10;61.10;;;;;;5092214;28;20518;-86
2022/07/01 11:44:07;;;;;;;2.20;2.00;;;24.30;59.50;;;;;;5094097;28;21030;-85
2022/07/01 11:46:40;;;;;;;3.57;1.80;;;24.40;58.90;;;;;;5093838;28;21046;-87
2022/07/01 11:49:12;;;;;;;2.23;1.83;;;24.30;58.50;;;;;;5092017;28;21042;-83
2022/07/01 11:51:42;;;;;;;2.27;1.90;;;24.20;58.80;;;;;;5096482;28;20462;-84
2022/07/01 11:54:23;;;;;;;3.17;1.97;;;23.90;60.30;;;;;;5095097;28;20453;-84
2022/07/01 11:57:20;;;;;;;1.90;1.80;;;23.60;60.00;;;;;;5093101;28;20459;-85
2022/07/01 11:59:55;;;;;;;4.50;2.07;;;23.60;60.70;;;;;;5100247;28;20443;-82
2022/07/01 12:02:23;;;;;;;2.63;1.80;;;23.60;60.90;;;;;;5082073;28;20536;-82
2022/07/01 12:04:52;;;;;;;3.90;2.20;;;23.50;61.10;;;;;;5101592;28;21003;-83
2022/07/01 12:07:26;;;;;;;5.33;2.67;;;23.50;61.80;;;;;;5098274;28;20488;-84
2022/07/01 12:09:53;;;;;;;2.77;2.13;;;23.70;62.20;;;;;;5097092;28;20471;-84
2022/07/01 12:12:31;;;;;;;1.73;1.30;;;23.90;61.60;;;;;;5092547;28;20464;-83
2022/07/01 12:15:04;;;;;;;4.57;1.53;;;24.10;59.00;;;;;;5093382;28;20481;-83
2022/07/01 12:17:36;;;;;;;2.13;1.70;;;24.40;58.40;;;;;;5097179;28;20479;-84
2022/07/01 12:20:18;;;;;;;2.30;1.60;;;25.10;56.90;;;;;;5095774;28;20442;-84
2022/07/01 12:22:45;;;;;;;1.43;1.33;;;25.10;56.60;;;;;;5091681;28;20473;-85
2022/07/01 12:25:21;;;;;;;2.47;1.33;;;25.40;55.20;;;;;;5130954;22;20496;-85
2022/07/01 12:27:49;;;;;;;3.00;1.60;;;25.40;55.20;;;;;;5053365;28;20466;-83
2022/07/01 12:30:33;;;;;;;1.70;1.60;;;25.20;55.30;;;;;;5054497;28;20460;-84
2022/07/01 12:33:23;;;;;;;1.53;1.43;;;24.80;55.60;;;;;;5040639;28;20461;-85
2022/07/01 12:35:54;;;;;;;2.90;1.60;;;24.50;56.10;;;;;;5036824;28;20581;-83
2022/07/01 12:39:03;;;;;;;4.10;1.67;;;24.40;56.80;;;;;;5035729;28;20575;-85
2022/07/01 12:42:17;;;;;;;1.57;1.30;;;24.30;56.80;;;;;;5063371;28;20440;-86
2022/07/01 12:44:49;;;;;;;1.67;1.57;;;25.20;56.20;;;;;;5040492;28;20476;-85
2022/07/01 12:51:01;;;;;;;2.50;1.53;;;25.00;54.20;;;;;;4985495;28;20483;-86
2022/07/01 12:53:33;;;;;;;1.50;1.07;;;24.90;54.70;;;;;;5001178;28;20456;-84
2022/07/01 12:56:54;;;;;;;1.50;1.10;;;24.90;54.40;;;;;;5047261;28;20518;-84
2022/07/01 12:59:28;;;;;;;1.97;1.03;;;24.70;54.20;;;;;;5032594;28;20472;-83
2022/07/01 13:02:03;;;;;;;2.23;1.10;;;24.80;54.50;;;;;;5029392;28;20452;-84
2022/07/01 13:05:00;;;;;;;2.87;1.30;;;24.70;54.40;;;;;;5028253;28;20472;-83
2022/07/01 13:07:36;;;;;;;3.10;1.40;;;25.00;54.70;;;;;;5021732;28;20456;-82
2022/07/01 13:10:18;;;;;;;3.80;1.10;;;25.20;55.20;;;;;;5031384;28;21014;-82
2022/07/01 13:12:52;;;;;;;0.87;0.80;;;25.20;55.30;;;;;;5049153;28;20487;-83
2022/07/01 13:16:04;;;;;;;2.60;1.10;;;25.20;54.90;;;;;;5032258;28;20464;-83
2022/07/01 13:19:34;;;;;;;1.60;1.07;;;24.90;55.80;;;;;;4965008;28;20488;-80
2022/07/01 13:22:07;;;;;;;1.67;0.90;;;24.80;53.40;;;;;;4951480;28;20455;-83
2022/07/01 13:24:37;;;;;;;2.00;1.10;;;24.60;52.90;;;;;;5002919;28;20476;-82
2022/07/01 13:27:06;;;;;;;1.20;1.10;;;24.50;53.50;;;;;;5043165;28;20443;-84
2022/07/01 13:29:33;;;;;;;1.67;1.07;;;24.40;53.60;;;;;;5050105;28;20440;-84
2022/07/01 13:32:00;;;;;;;0.90;0.80;;;24.30;53.40;;;;;;5046335;28;20547;-83
2022/07/01 13:34:32;;;;;;;2.53;1.37;;;24.40;53.40;;;;;;5029406;28;20468;-84
2022/07/01 13:37:02;;;;;;;1.23;1.00;;;24.40;53.20;;;;;;5030604;28;20938;-85